Terminal Aerodrome Forecast
Issued by NWS

Home | Current Version | Previous Version | Graphics & Text | Print | Product List | Glossary Off
Versions: 1 2 3 4 5 6 7 8 9 10 11 12 13 14

000
FTUS43 KGRB 302300
TAFMTW
TAF
KMTW 302321Z 3100/3124 14009KT P6SM FEW060
     FM310200 15005KT P6SM SCT040 BKN100
     FM310800 24003KT 6SM BR SCT080
     FM311400 27006KT P6SM SCT040 SCT100=

USA.gov is the U.S. government's official web portal to all federal, state and local government web resources and services.